Time;durP1;ratioP1;P1;durP2;ratioP2;P2;SDS_P1;SDS_P2;PMS_P1;PMS_P2;Temp;Humidity;BMP_temperature;BMP_pressure;BME280_temperature;BME280_humidity;BME280_pressure;Samples;Min_cycle;Max_cycle;Signal;HPM_P1;HPM_P2
2023/05/24 00:01:24;;;;;;;14.88;7.22;;;13.10;99.90;;;;;;5071959;28;20417;-71
2023/05/24 00:03:57;;;;;;;14.57;6.53;;;13.10;99.90;;;;;;5071282;28;20039;-71
2023/05/24 00:06:25;;;;;;;14.68;6.43;;;13.10;99.90;;;;;;5070513;28;20035;-71
2023/05/24 00:08:53;;;;;;;13.55;6.22;;;13.00;99.90;;;;;;5071375;28;20368;-71
2023/05/24 00:11:19;;;;;;;11.80;6.22;;;13.00;99.90;;;;;;5071920;28;20183;-71
2023/05/24 00:13:45;;;;;;;11.88;5.70;;;12.90;99.90;;;;;;5071966;28;20032;-71
2023/05/24 00:16:11;;;;;;;12.90;6.50;;;12.90;99.90;;;;;;5071111;28;20020;-71
2023/05/24 00:18:39;;;;;;;10.52;6.07;;;12.70;99.90;;;;;;5070373;28;20119;-72
2023/05/24 00:21:08;;;;;;;12.80;5.75;;;12.60;99.90;;;;;;5071036;28;20108;-71
2023/05/24 00:23:35;;;;;;;17.73;7.07;;;12.50;99.90;;;;;;5070298;28;21002;-72
2023/05/24 00:26:02;;;;;;;14.23;6.63;;;12.40;99.90;;;;;;5069432;28;20035;-72
2023/05/24 00:28:28;;;;;;;12.70;6.68;;;12.40;99.90;;;;;;5071665;28;20052;-71
2023/05/24 00:30:53;;;;;;;12.38;6.07;;;12.40;99.90;;;;;;5070781;28;20436;-72
2023/05/24 00:33:22;;;;;;;15.40;6.38;;;12.40;99.90;;;;;;5071573;28;20393;-72
2023/05/24 00:35:48;;;;;;;12.30;6.38;;;12.40;99.90;;;;;;5071657;28;20081;-71
2023/05/24 00:38:14;;;;;;;17.77;7.05;;;12.40;99.90;;;;;;5069235;28;20035;-71
2023/05/24 00:40:39;;;;;;;13.48;6.20;;;12.40;99.90;;;;;;5071701;28;20040;-70
2023/05/24 00:43:05;;;;;;;12.50;6.30;;;12.40;99.90;;;;;;5070685;28;20411;-71
2023/05/24 00:45:31;;;;;;;12.65;6.60;;;12.40;99.90;;;;;;5071333;28;20033;-71
2023/05/24 00:47:56;;;;;;;12.00;6.07;;;12.40;99.90;;;;;;5070605;28;20024;-71
2023/05/24 00:50:23;;;;;;;17.58;7.13;;;12.40;99.90;;;;;;5070971;28;20406;-71
2023/05/24 00:52:50;;;;;;;13.65;5.97;;;12.50;99.90;;;;;;5071033;28;20120;-71
2023/05/24 00:55:16;;;;;;;11.07;5.93;;;12.50;99.90;;;;;;5070156;28;20090;-71
2023/05/24 00:57:42;;;;;;;14.20;6.43;;;12.40;99.90;;;;;;5071079;28;20033;-71
2023/05/24 01:00:08;;;;;;;12.77;5.85;;;12.50;99.90;;;;;;5070247;28;20081;-71
2023/05/24 01:02:34;;;;;;;10.52;5.50;;;12.50;99.90;;;;;;5070928;28;20056;-71
2023/05/24 01:04:59;;;;;;;13.35;5.68;;;12.40;99.90;;;;;;5068791;28;20033;-71
2023/05/24 01:07:43;;;;;;;15.32;6.00;;;12.40;99.90;;;;;;5070870;28;20052;-71
2023/05/24 01:10:17;;;;;;;13.60;5.72;;;12.40;99.90;;;;;;5070104;28;20181;-71
2023/05/24 01:13:19;;;;;;;17.83;6.32;;;12.50;99.90;;;;;;5070751;28;20095;-71
2023/05/24 01:15:52;;;;;;;10.35;5.60;;;12.40;99.90;;;;;;5068436;28;20041;-71
2023/05/24 01:18:30;;;;;;;13.80;6.25;;;12.50;99.90;;;;;;5070318;28;20033;-71
2023/05/24 01:21:05;;;;;;;11.93;5.38;;;12.40;99.90;;;;;;5069882;28;20085;-71
2023/05/24 01:23:59;;;;;;;12.13;6.18;;;12.40;99.90;;;;;;5070540;28;20033;-71
2023/05/24 01:26:41;;;;;;;17.40;7.07;;;12.30;99.90;;;;;;5061175;28;20452;-71
2023/05/24 01:29:07;;;;;;;14.88;6.45;;;12.30;99.90;;;;;;5069792;28;20059;-71
2023/05/24 01:31:34;;;;;;;15.68;6.25;;;12.20;99.90;;;;;;5070437;28;20036;-71
2023/05/24 01:34:00;;;;;;;15.07;6.15;;;12.20;99.90;;;;;;5068239;28;20052;-71
2023/05/24 01:36:25;;;;;;;17.20;6.65;;;12.10;99.90;;;;;;5070258;28;20027;-73
2023/05/24 01:38:51;;;;;;;14.73;6.22;;;12.10;99.90;;;;;;5069994;28;20024;-71
2023/05/24 01:41:46;;;;;;;14.23;5.70;;;12.10;99.90;;;;;;5069274;28;20090;-71
2023/05/24 01:44:39;;;;;;;18.15;6.18;;;12.10;99.90;;;;;;5067920;28;20450;-71
2023/05/24 01:47:24;;;;;;;17.33;7.40;;;12.10;99.90;;;;;;5068077;28;20477;-71
2023/05/24 01:49:53;;;;;;;13.07;5.97;;;12.10;99.90;;;;;;5070087;28;20040;-71
2023/05/24 01:52:22;;;;;;;18.50;6.20;;;12.00;99.90;;;;;;5069137;28;20087;-71
2023/05/24 01:54:55;;;;;;;14.57;6.25;;;12.00;99.90;;;;;;5070189;28;20158;-71
2023/05/24 01:57:22;;;;;;;12.50;6.32;;;12.00;99.90;;;;;;5068200;28;20024;-71
2023/05/24 01:59:50;;;;;;;15.30;6.18;;;11.90;99.90;;;;;;5069756;28;20024;-71
2023/05/24 02:02:15;;;;;;;13.55;6.43;;;11.90;99.90;;;;;;5068589;28;20036;-71
2023/05/24 02:04:41;;;;;;;12.93;5.97;;;11.80;99.90;;;;;;5069621;28;20032;-72
2023/05/24 02:07:07;;;;;;;19.27;7.13;;;11.90;99.90;;;;;;5067348;28;20501;-72
2023/05/24 02:09:32;;;;;;;13.15;6.28;;;11.80;99.90;;;;;;5069562;28;20060;-71
2023/05/24 02:11:59;;;;;;;14.07;6.43;;;11.80;99.90;;;;;;5068682;28;20177;-71
2023/05/24 02:14:25;;;;;;;16.58;6.65;;;11.70;99.90;;;;;;5068034;28;20048;-72
2023/05/24 02:16:51;;;;;;;15.90;6.35;;;11.80;99.90;;;;;;5069374;28;20028;-71
2023/05/24 02:19:16;;;;;;;19.27;6.88;;;11.70;99.90;;;;;;5068326;28;20165;-72
2023/05/24 02:21:42;;;;;;;18.70;6.68;;;11.60;99.90;;;;;;5069338;28;20036;-71
2023/05/24 02:24:10;;;;;;;12.80;6.45;;;11.50;99.90;;;;;;5068156;28;20025;-72
2023/05/24 02:26:36;;;;;;;10.98;5.65;;;11.40;99.90;;;;;;5069219;28;20412;-71
2023/05/24 02:29:02;;;;;;;16.48;6.30;;;11.30;99.90;;;;;;5068185;28;20060;-72
2023/05/24 02:31:28;;;;;;;17.13;5.47;;;11.20;99.90;;;;;;5067515;28;20090;-71
2023/05/24 02:33:58;;;;;;;15.05;6.32;;;11.10;99.90;;;;;;5068889;28;20028;-73
2023/05/24 02:36:24;;;;;;;15.82;7.15;;;11.10;99.90;;;;;;5068847;28;20086;-72
2023/05/24 02:38:50;;;;;;;18.92;6.80;;;11.20;99.90;;;;;;5067805;28;20033;-71
2023/05/24 02:41:17;;;;;;;17.77;6.28;;;11.20;99.90;;;;;;5068288;28;20093;-71
2023/05/24 02:43:46;;;;;;;17.23;6.45;;;11.30;99.90;;;;;;5069005;28;20024;-71
2023/05/24 02:46:12;;;;;;;17.48;7.20;;;11.30;99.90;;;;;;5066683;28;20052;-71
2023/05/24 02:48:38;;;;;;;12.43;5.85;;;11.30;99.90;;;;;;5068881;28;20024;-71
2023/05/24 02:51:04;;;;;;;15.15;6.60;;;11.30;99.90;;;;;;5067970;28;20043;-71
2023/05/24 02:53:30;;;;;;;16.95;6.25;;;11.20;99.90;;;;;;5068879;28;20449;-71
2023/05/24 02:55:56;;;;;;;15.15;6.50;;;11.20;99.90;;;;;;5068852;28;20374;-71
2023/05/24 02:58:22;;;;;;;15.93;6.35;;;11.10;99.90;;;;;;5068038;28;20032;-71
2023/05/24 03:00:48;;;;;;;15.77;6.28;;;11.10;99.90;;;;;;5068683;28;20032;-71
2023/05/24 03:03:14;;;;;;;18.00;6.63;;;11.10;99.90;;;;;;5067481;28;20101;-71
2023/05/24 03:05:39;;;;;;;16.00;5.90;;;11.10;99.90;;;;;;5067258;28;20036;-71
2023/05/24 03:08:05;;;;;;;16.52;6.65;;;11.30;99.90;;;;;;5068276;28;20028;-71
2023/05/24 03:10:31;;;;;;;20.15;7.18;;;11.30;99.90;;;;;;5068710;28;20032;-71
2023/05/24 03:12:57;;;;;;;19.30;6.57;;;11.30;99.90;;;;;;5068585;28;20047;-71
2023/05/24 03:15:23;;;;;;;19.83;7.22;;;11.30;99.90;;;;;;5067697;28;20493;-71
2023/05/24 03:17:48;;;;;;;21.23;6.93;;;11.30;99.90;;;;;;5073480;28;20405;-71
2023/05/24 03:20:14;;;;;;;16.92;6.90;;;11.20;99.90;;;;;;5074600;28;20032;-71
2023/05/24 03:22:40;;;;;;;17.05;7.00;;;11.20;99.90;;;;;;5075160;28;20410;-71
2023/05/24 03:25:07;;;;;;;14.93;5.88;;;11.10;99.90;;;;;;5074466;28;20028;-71
2023/05/24 03:27:33;;;;;;;16.52;6.60;;;11.20;99.90;;;;;;5075091;28;20108;-71
2023/05/24 03:29:59;;;;;;;14.07;6.10;;;11.10;99.90;;;;;;5074730;28;20548;-71
2023/05/24 03:32:25;;;;;;;21.48;6.50;;;11.10;99.90;;;;;;5074425;28;20055;-71
2023/05/24 03:34:51;;;;;;;17.35;6.28;;;11.10;99.90;;;;;;5075144;28;20518;-71
2023/05/24 03:37:17;;;;;;;19.98;7.13;;;11.10;99.90;;;;;;5072827;28;20032;-71
2023/05/24 03:39:42;;;;;;;20.98;6.65;;;11.10;99.90;;;;;;5074694;28;20050;-71
2023/05/24 03:42:08;;;;;;;18.08;6.78;;;11.10;99.90;;;;;;5074251;28;20031;-71
2023/05/24 03:44:34;;;;;;;17.73;6.63;;;11.10;99.90;;;;;;5074954;28;20035;-71
2023/05/24 03:47:00;;;;;;;15.80;6.68;;;11.10;99.90;;;;;;5074846;28;20032;-71
2023/05/24 03:49:25;;;;;;;17.00;6.40;;;11.10;99.90;;;;;;5074327;28;20024;-71
2023/05/24 03:51:51;;;;;;;15.82;6.63;;;11.00;99.90;;;;;;5074866;28;20388;-71
2023/05/24 03:54:17;;;;;;;15.30;6.22;;;11.00;99.90;;;;;;5074105;28;20131;-71
2023/05/24 03:56:43;;;;;;;19.40;6.10;;;11.00;99.90;;;;;;5074862;28;20028;-71
2023/05/24 03:59:08;;;;;;;20.38;6.93;;;10.90;99.90;;;;;;5074137;28;20468;-71
2023/05/24 04:01:35;;;;;;;17.67;7.15;;;10.90;99.90;;;;;;5073049;28;20058;-71
2023/05/24 04:04:02;;;;;;;18.58;6.75;;;10.90;99.90;;;;;;5074674;28;20075;-71
2023/05/24 04:06:29;;;;;;;15.85;6.10;;;10.80;99.90;;;;;;5074670;28;20024;-71
2023/05/24 04:08:55;;;;;;;15.02;6.32;;;10.90;99.90;;;;;;5074857;28;20013;-71
2023/05/24 04:11:22;;;;;;;15.10;6.25;;;10.80;99.90;;;;;;5073875;28;20805;-71
2023/05/24 04:13:49;;;;;;;16.20;7.05;;;10.80;99.90;;;;;;5073316;28;20020;-71
2023/05/24 04:16:15;;;;;;;17.80;6.13;;;10.80;99.90;;;;;;5073869;28;20452;-71
2023/05/24 04:18:41;;;;;;;16.58;6.65;;;10.80;99.90;;;;;;5074714;28;20060;-72
2023/05/24 04:21:06;;;;;;;16.98;6.25;;;10.80;99.90;;;;;;5072444;28;20064;-72
2023/05/24 04:23:32;;;;;;;18.35;6.97;;;10.80;99.90;;;;;;5074705;28;20039;-71
2023/05/24 04:25:57;;;;;;;16.27;7.00;;;10.70;99.90;;;;;;5074683;28;20522;-71
2023/05/24 04:28:25;;;;;;;17.85;6.40;;;10.80;99.90;;;;;;5071278;28;20032;-71
2023/05/24 04:30:51;;;;;;;13.25;6.20;;;10.80;99.90;;;;;;5071430;28;20024;-71
2023/05/24 04:33:16;;;;;;;15.05;6.10;;;10.80;99.90;;;;;;5070648;28;20049;-71
2023/05/24 04:35:43;;;;;;;16.17;6.00;;;10.80;99.90;;;;;;5071354;28;20437;-71
2023/05/24 04:38:11;;;;;;;19.55;6.97;;;10.80;99.90;;;;;;5069090;28;20031;-71
2023/05/24 04:40:37;;;;;;;19.83;7.05;;;10.80;99.90;;;;;;5071142;28;20128;-71
2023/05/24 04:43:05;;;;;;;18.45;6.72;;;10.60;99.90;;;;;;5071164;28;20174;-71
2023/05/24 04:45:31;;;;;;;15.43;6.72;;;10.60;99.90;;;;;;5070787;28;20020;-71
2023/05/24 04:47:57;;;;;;;19.95;7.47;;;10.70;99.90;;;;;;5071030;28;20063;-71
2023/05/24 04:50:23;;;;;;;13.98;6.28;;;10.70;99.90;;;;;;5068837;28;20071;-71
2023/05/24 04:52:48;;;;;;;17.02;6.85;;;10.80;99.90;;;;;;5071036;28;20029;-71
2023/05/24 04:55:14;;;;;;;21.10;6.68;;;10.80;99.90;;;;;;5070548;28;20067;-71
2023/05/24 04:57:40;;;;;;;15.85;6.30;;;10.80;99.90;;;;;;5070597;28;20108;-72
2023/05/24 05:00:07;;;;;;;23.30;7.07;;;10.90;99.90;;;;;;5070877;28;20122;-71
2023/05/24 05:02:33;;;;;;;18.50;7.15;;;10.90;99.90;;;;;;5070131;28;20101;-71
2023/05/24 05:04:58;;;;;;;11.57;5.82;;;11.00;99.90;;;;;;5069406;28;20025;-71
2023/05/24 05:07:24;;;;;;;15.75;5.88;;;11.00;99.90;;;;;;5069941;28;20630;-72
2023/05/24 05:09:50;;;;;;;16.23;6.40;;;11.00;99.90;;;;;;5069330;28;20043;-71
2023/05/24 05:12:15;;;;;;;18.20;6.60;;;11.00;99.90;;;;;;5069871;28;20036;-72
2023/05/24 05:14:41;;;;;;;17.00;5.97;;;11.00;99.90;;;;;;5070641;28;20370;-71
2023/05/24 05:17:07;;;;;;;18.90;5.93;;;11.00;99.90;;;;;;5070217;28;20025;-71
2023/05/24 05:19:33;;;;;;;17.35;6.43;;;11.10;99.90;;;;;;5070118;28;20114;-71
2023/05/24 05:21:58;;;;;;;18.00;5.80;;;11.10;99.90;;;;;;5070526;28;20512;-71
2023/05/24 05:24:24;;;;;;;14.50;6.22;;;11.10;99.90;;;;;;5069645;28;20526;-71
2023/05/24 05:26:49;;;;;;;19.48;6.43;;;11.10;99.90;;;;;;5070274;28;20032;-71
2023/05/24 05:29:15;;;;;;;21.42;6.38;;;11.10;99.90;;;;;;5069812;28;20050;-71
2023/05/24 05:31:41;;;;;;;21.35;6.85;;;11.00;99.90;;;;;;5070208;28;20040;-71
2023/05/24 05:34:09;;;;;;;20.05;6.30;;;11.10;99.90;;;;;;5070045;28;20445;-71
2023/05/24 05:36:39;;;;;;;18.45;6.50;;;11.10;99.90;;;;;;5070129;28;20028;-71
2023/05/24 05:39:08;;;;;;;19.20;6.50;;;11.20;99.90;;;;;;5068678;28;20086;-71
2023/05/24 05:41:44;;;;;;;18.25;6.65;;;11.20;99.90;;;;;;5068057;28;20115;-71
2023/05/24 05:44:11;;;;;;;21.48;7.00;;;11.30;99.90;;;;;;5068138;28;20036;-71
2023/05/24 05:46:37;;;;;;;18.67;6.22;;;11.30;99.90;;;;;;5068474;28;20028;-71
2023/05/24 05:49:03;;;;;;;18.42;6.85;;;11.30;99.90;;;;;;5069913;28;20021;-71
2023/05/24 05:51:29;;;;;;;17.85;5.88;;;11.40;99.90;;;;;;5069005;28;20111;-71
2023/05/24 05:53:55;;;;;;;15.82;6.38;;;11.30;99.90;;;;;;5069857;28;20060;-71
2023/05/24 05:56:20;;;;;;;17.23;5.70;;;11.40;99.90;;;;;;5068940;28;20052;-71
2023/05/24 05:58:46;;;;;;;16.67;6.45;;;11.40;99.90;;;;;;5069654;28;20035;-71
2023/05/24 06:01:12;;;;;;;17.80;6.15;;;11.40;99.90;;;;;;5069017;28;20082;-71
2023/05/24 06:03:37;;;;;;;15.55;5.53;;;11.40;99.90;;;;;;5069186;28;20052;-71
2023/05/24 06:06:03;;;;;;;12.07;5.57;;;11.40;99.90;;;;;;5069576;28;20021;-70
2023/05/24 06:08:33;;;;;;;15.63;6.03;;;11.40;99.90;;;;;;5069045;28;20037;-71
2023/05/24 06:10:59;;;;;;;16.77;6.20;;;11.40;99.90;;;;;;5069473;28;20064;-71
2023/05/24 06:13:27;;;;;;;16.27;6.07;;;11.50;99.90;;;;;;5068617;28;20033;-71
2023/05/24 06:15:53;;;;;;;16.92;6.43;;;11.60;99.90;;;;;;5069385;28;20021;-71
2023/05/24 06:18:19;;;;;;;18.70;6.03;;;11.70;99.90;;;;;;5068546;28;20043;-71
2023/05/24 06:20:45;;;;;;;18.33;6.82;;;11.80;99.90;;;;;;5069293;28;20021;-71
2023/05/24 06:23:11;;;;;;;19.63;6.18;;;11.70;99.90;;;;;;5068869;28;20116;-71
2023/05/24 06:25:37;;;;;;;14.70;5.97;;;11.70;99.90;;;;;;5068559;28;20104;-73
2023/05/24 06:28:03;;;;;;;19.40;6.35;;;11.80;99.90;;;;;;5067673;28;20031;-71
2023/05/24 06:30:29;;;;;;;16.83;6.18;;;11.80;99.90;;;;;;5068136;28;20034;-71
2023/05/24 06:32:55;;;;;;;19.10;5.78;;;11.80;99.90;;;;;;5069024;28;20053;-71
2023/05/24 06:35:21;;;;;;;21.02;6.15;;;11.90;99.90;;;;;;5068120;28;20021;-71
2023/05/24 06:37:47;;;;;;;23.98;5.15;;;11.80;99.90;;;;;;5069016;28;20021;-71
2023/05/24 06:40:12;;;;;;;27.05;6.10;;;12.00;99.90;;;;;;5068521;28;20078;-71
2023/05/24 06:42:39;;;;;;;19.77;5.70;;;12.00;99.90;;;;;;5068748;28;20071;-71
2023/05/24 06:45:05;;;;;;;18.52;6.28;;;12.10;99.90;;;;;;5068946;28;20032;-72
2023/05/24 06:47:31;;;;;;;15.98;5.57;;;12.20;99.90;;;;;;5068194;28;20060;-71
2023/05/24 06:49:56;;;;;;;20.95;6.43;;;12.30;99.90;;;;;;5067408;28;20060;-71
2023/05/24 06:52:22;;;;;;;26.35;6.45;;;12.40;99.90;;;;;;5067538;28;20032;-71
2023/05/24 06:54:49;;;;;;;17.73;5.93;;;12.40;99.90;;;;;;5068759;28;20024;-71
2023/05/24 06:57:14;;;;;;;17.45;5.70;;;12.30;99.90;;;;;;5068279;28;20028;-73
2023/05/24 06:59:40;;;;;;;15.95;5.70;;;12.40;99.90;;;;;;5068529;28;20044;-73
2023/05/24 07:02:05;;;;;;;17.25;5.93;;;12.60;99.90;;;;;;5066919;28;20102;-73
2023/05/24 07:04:31;;;;;;;20.98;6.15;;;12.50;99.90;;;;;;5066490;28;20233;-72
2023/05/24 07:06:57;;;;;;;20.10;6.03;;;12.40;99.90;;;;;;5068677;28;20480;-72
2023/05/24 07:09:23;;;;;;;14.93;5.82;;;12.40;99.90;;;;;;5067756;28;20116;-72
2023/05/24 07:11:48;;;;;;;20.00;6.38;;;12.40;99.90;;;;;;5068549;28;20111;-72
2023/05/24 07:14:14;;;;;;;21.52;6.65;;;12.30;99.90;;;;;;5068099;28;20025;-72
2023/05/24 07:16:40;;;;;;;17.45;5.80;;;12.30;99.90;;;;;;5066918;28;20028;-71
2023/05/24 07:19:06;;;;;;;20.48;6.60;;;12.10;99.90;;;;;;5068237;28;20082;-71
2023/05/24 07:21:32;;;;;;;13.88;6.18;;;12.20;99.90;;;;;;5067781;28;20063;-71
2023/05/24 07:23:57;;;;;;;22.25;6.15;;;12.40;99.90;;;;;;5068546;28;20028;-71
2023/05/24 07:26:23;;;;;;;23.50;6.80;;;12.40;99.90;;;;;;5067611;28;20486;-73
2023/05/24 07:28:48;;;;;;;22.77;6.68;;;12.50;99.90;;;;;;5068711;28;20032;-71
2023/05/24 07:31:15;;;;;;;23.95;6.32;;;12.60;99.90;;;;;;5068148;28;20420;-71
2023/05/24 07:33:43;;;;;;;24.73;7.28;;;12.70;99.90;;;;;;5067888;28;20048;-71
2023/05/24 07:36:09;;;;;;;16.48;5.70;;;12.90;99.90;;;;;;5068405;28;20056;-73
2023/05/24 07:38:35;;;;;;;28.35;6.60;;;13.00;99.90;;;;;;5067680;28;20472;-71
2023/05/24 07:41:05;;;;;;;16.55;6.20;;;13.10;99.90;;;;;;5068618;28;20771;-71
2023/05/24 07:43:31;;;;;;;16.10;6.03;;;13.20;99.90;;;;;;5066305;28;20060;-71
2023/05/24 07:45:56;;;;;;;17.92;5.88;;;13.10;99.90;;;;;;5068351;28;20603;-71
2023/05/24 07:48:22;;;;;;;19.38;6.20;;;13.10;99.90;;;;;;5067267;28;20033;-72
2023/05/24 07:50:49;;;;;;;24.83;6.20;;;13.10;99.90;;;;;;5068477;28;20025;-72
2023/05/24 07:53:15;;;;;;;15.65;6.15;;;13.10;99.90;;;;;;5068113;28;20171;-72
2023/05/24 07:55:41;;;;;;;15.38;5.50;;;12.80;99.90;;;;;;5067753;28;20029;-71
2023/05/24 07:58:06;;;;;;;15.00;5.57;;;12.80;99.90;;;;;;5067873;28;20429;-71
2023/05/24 08:00:32;;;;;;;12.98;5.88;;;12.80;99.90;;;;;;5065876;28;20033;-72
2023/05/24 08:02:58;;;;;;;17.98;6.10;;;12.80;99.90;;;;;;5068971;28;20059;-72
2023/05/24 08:05:24;;;;;;;19.60;5.65;;;13.00;99.90;;;;;;5071155;28;20031;-72
2023/05/24 08:07:51;;;;;;;17.33;5.93;;;13.00;99.90;;;;;;5071844;28;20032;-72
2023/05/24 08:10:17;;;;;;;15.45;5.60;;;12.80;99.90;;;;;;5071452;28;20033;-71
2023/05/24 08:12:43;;;;;;;17.52;6.05;;;12.90;99.90;;;;;;5071318;28;20078;-72
2023/05/24 08:15:09;;;;;;;15.15;5.55;;;13.00;99.90;;;;;;5071668;28;20024;-72
2023/05/24 08:17:35;;;;;;;18.30;5.22;;;13.00;99.90;;;;;;5070841;28;20048;-72
2023/05/24 08:20:05;;;;;;;18.73;5.72;;;13.00;99.90;;;;;;5071608;28;20067;-72
2023/05/24 08:22:30;;;;;;;13.90;5.25;;;13.00;99.90;;;;;;5070775;28;20028;-71
2023/05/24 08:24:57;;;;;;;14.68;5.65;;;13.00;99.90;;;;;;5071543;28;20120;-72
2023/05/24 08:27:23;;;;;;;18.65;5.97;;;13.00;99.90;;;;;;5068971;28;20116;-72
2023/05/24 08:29:48;;;;;;;19.98;6.40;;;13.00;99.90;;;;;;5071398;28;20108;-72
2023/05/24 08:32:14;;;;;;;20.23;6.15;;;13.10;99.90;;;;;;5071036;28;20044;-72
2023/05/24 08:34:39;;;;;;;25.52;6.32;;;13.10;99.90;;;;;;5070483;28;20024;-72
2023/05/24 08:37:05;;;;;;;22.50;6.05;;;13.00;99.90;;;;;;5071328;28;20510;-71
2023/05/24 08:39:31;;;;;;;15.20;6.03;;;13.00;99.90;;;;;;5070457;28;20133;-72
2023/05/24 08:41:58;;;;;;;20.02;5.80;;;13.00;99.90;;;;;;5071213;28;20479;-72
2023/05/24 08:44:24;;;;;;;19.88;5.80;;;13.10;99.90;;;;;;5070419;28;20017;-72
2023/05/24 08:46:52;;;;;;;15.35;5.90;;;13.10;99.90;;;;;;5071102;28;20087;-71
2023/05/24 08:49:18;;;;;;;18.60;6.32;;;13.10;99.90;;;;;;5069620;28;20380;-72
2023/05/24 08:51:44;;;;;;;17.85;6.05;;;13.20;99.90;;;;;;5070138;28;20038;-72
2023/05/24 08:54:12;;;;;;;17.50;6.22;;;13.20;99.90;;;;;;5071062;28;20040;-71
2023/05/24 08:56:39;;;;;;;21.00;5.97;;;13.10;99.90;;;;;;5070439;28;20836;-72
2023/05/24 08:59:06;;;;;;;19.77;5.45;;;12.90;99.90;;;;;;5070975;28;20119;-71
2023/05/24 09:01:31;;;;;;;15.65;6.03;;;12.80;99.90;;;;;;5069662;28;20032;-71
2023/05/24 09:03:59;;;;;;;16.92;5.88;;;12.90;99.90;;;;;;5070843;28;20469;-72
2023/05/24 09:06:26;;;;;;;17.63;5.55;;;12.80;99.90;;;;;;5069990;28;20685;-71
2023/05/24 09:08:52;;;;;;;18.83;5.97;;;12.70;99.90;;;;;;5070665;28;20029;-71
2023/05/24 09:11:20;;;;;;;17.45;5.57;;;12.70;99.90;;;;;;5070584;28;20063;-71
2023/05/24 09:13:48;;;;;;;21.38;6.25;;;12.80;99.90;;;;;;5070108;28;20028;-71
2023/05/24 09:16:14;;;;;;;18.27;6.80;;;12.90;99.90;;;;;;5069867;28;20027;-71
2023/05/24 09:18:43;;;;;;;17.90;6.35;;;12.70;99.90;;;;;;5069937;28;20063;-73
2023/05/24 09:21:10;;;;;;;17.23;6.30;;;12.70;99.90;;;;;;5070544;28;20031;-71
2023/05/24 09:23:36;;;;;;;18.98;6.70;;;12.70;99.90;;;;;;5069283;28;20476;-71
2023/05/24 09:26:09;;;;;;;18.95;6.32;;;12.70;99.90;;;;;;5070438;28;20024;-71
2023/05/24 09:28:36;;;;;;;15.63;5.85;;;12.70;99.90;;;;;;5068018;28;20028;-71
2023/05/24 09:31:03;;;;;;;20.90;6.32;;;12.70;99.90;;;;;;5070189;28;20086;-73
2023/05/24 09:33:33;;;;;;;21.58;6.45;;;12.70;99.90;;;;;;5068057;28;20033;-71
2023/05/24 09:36:00;;;;;;;20.83;6.55;;;12.80;99.90;;;;;;5070248;28;20437;-71
2023/05/24 09:38:27;;;;;;;21.35;6.40;;;12.70;99.90;;;;;;5069361;28;20536;-71
2023/05/24 09:41:07;;;;;;;20.00;6.35;;;12.70;99.90;;;;;;5069802;28;20496;-71
2023/05/24 09:43:33;;;;;;;13.75;5.82;;;12.70;99.90;;;;;;5069065;28;20504;-71
2023/05/24 09:46:03;;;;;;;21.17;6.05;;;12.70;99.90;;;;;;5069757;28;20508;-71
2023/05/24 09:48:29;;;;;;;21.85;6.63;;;12.60;99.90;;;;;;5067686;28;20059;-71
2023/05/24 09:51:10;;;;;;;19.98;5.93;;;12.50;99.90;;;;;;5069920;28;20064;-71
2023/05/24 09:53:36;;;;;;;16.75;5.75;;;12.60;99.90;;;;;;5068993;28;20037;-71
2023/05/24 09:56:07;;;;;;;18.75;6.10;;;12.60;99.90;;;;;;5070049;28;20032;-71
2023/05/24 09:58:33;;;;;;;18.83;6.30;;;12.70;99.90;;;;;;5067481;28;20119;-71
2023/05/24 10:01:17;;;;;;;15.40;5.88;;;12.80;99.90;;;;;;5069260;28;20710;-71
2023/05/24 10:03:53;;;;;;;17.60;6.03;;;12.80;99.90;;;;;;5068525;28;20080;-71
2023/05/24 10:06:19;;;;;;;15.63;5.72;;;12.70;99.90;;;;;;5069471;28;20027;-71
2023/05/24 10:08:50;;;;;;;13.55;5.53;;;12.70;99.90;;;;;;5068469;28;20027;-71
2023/05/24 10:11:17;;;;;;;18.85;5.88;;;12.60;99.90;;;;;;5069460;28;20020;-71
2023/05/24 10:13:43;;;;;;;21.70;5.63;;;12.70;99.90;;;;;;5068325;28;20036;-71
2023/05/24 10:16:08;;;;;;;18.30;6.28;;;12.70;99.90;;;;;;5069425;28;20465;-71
2023/05/24 10:18:34;;;;;;;16.95;5.38;;;12.70;99.90;;;;;;5068786;28;20062;-71
2023/05/24 10:21:01;;;;;;;23.30;6.25;;;12.70;99.90;;;;;;5069208;28;20393;-71
2023/05/24 10:23:31;;;;;;;18.60;5.97;;;12.70;99.90;;;;;;5068649;28;20029;-71
2023/05/24 10:26:10;;;;;;;17.37;5.70;;;12.70;99.90;;;;;;5067338;28;20049;-71
2023/05/24 10:28:42;;;;;;;15.52;5.20;;;12.70;99.90;;;;;;5068255;28;20031;-71
2023/05/24 10:31:25;;;;;;;18.85;6.25;;;12.80;99.90;;;;;;5067509;28;20042;-71
2023/05/24 10:33:51;;;;;;;20.05;5.43;;;12.80;99.90;;;;;;5068712;28;20028;-71
2023/05/24 10:36:17;;;;;;;16.05;6.25;;;12.80;99.90;;;;;;5068867;28;20050;-71
2023/05/24 10:38:46;;;;;;;24.38;6.05;;;12.90;99.90;;;;;;5068174;28;20037;-71
2023/05/24 10:41:12;;;;;;;18.48;5.75;;;12.90;99.90;;;;;;5068723;28;20067;-71
2023/05/24 10:43:38;;;;;;;18.10;5.95;;;13.00;99.90;;;;;;5068138;28;20024;-71
2023/05/24 10:46:07;;;;;;;15.23;5.75;;;13.00;99.90;;;;;;5068915;28;20021;-73
2023/05/24 10:48:39;;;;;;;17.55;5.93;;;13.00;99.90;;;;;;5068023;28;20035;-73
2023/05/24 10:51:37;;;;;;;21.27;5.63;;;13.10;99.90;;;;;;5068720;28;20040;-73
2023/05/24 10:54:18;;;;;;;18.48;6.18;;;13.00;99.90;;;;;;5056420;28;20463;-73
2023/05/24 10:56:49;;;;;;;14.57;5.78;;;12.80;99.90;;;;;;5067892;28;20039;-73
2023/05/24 10:59:33;;;;;;;17.17;5.80;;;12.70;99.90;;;;;;5068630;28;20392;-71
2023/05/24 11:02:00;;;;;;;21.27;6.07;;;12.80;99.90;;;;;;5067196;28;20072;-71
2023/05/24 11:04:29;;;;;;;22.20;6.30;;;12.80;99.90;;;;;;5067147;28;20036;-73
2023/05/24 11:07:04;;;;;;;17.50;6.00;;;12.70;99.90;;;;;;5068404;28;20039;-71
2023/05/24 11:09:32;;;;;;;15.02;5.63;;;12.50;99.90;;;;;;5068125;28;20090;-71
2023/05/24 11:12:07;;;;;;;13.88;5.20;;;12.50;99.90;;;;;;5068543;28;20376;-71
2023/05/24 11:14:38;;;;;;;14.82;5.15;;;12.60;99.90;;;;;;5067800;28;20025;-71
2023/05/24 11:17:04;;;;;;;20.73;6.47;;;12.60;99.90;;;;;;5068654;28;20032;-71
2023/05/24 11:19:37;;;;;;;23.13;5.97;;;12.60;99.90;;;;;;5067976;28;20033;-71
2023/05/24 11:22:06;;;;;;;14.95;5.85;;;12.60;99.90;;;;;;5067176;28;20029;-71
2023/05/24 11:24:33;;;;;;;24.40;6.97;;;12.70;99.90;;;;;;5066290;28;20468;-71
2023/05/24 11:27:00;;;;;;;18.65;5.95;;;12.80;99.90;;;;;;5068350;28;20054;-71
2023/05/24 11:29:27;;;;;;;17.90;5.95;;;12.90;99.90;;;;;;5068318;28;20055;-71
2023/05/24 11:32:03;;;;;;;22.98;5.60;;;13.00;99.90;;;;;;5067757;28;20045;-71
2023/05/24 11:34:29;;;;;;;18.08;6.13;;;13.20;99.90;;;;;;5066771;28;20098;-71
2023/05/24 11:36:55;;;;;;;22.25;6.30;;;13.30;99.90;;;;;;5068045;28;20020;-71
2023/05/24 11:39:22;;;;;;;20.73;6.85;;;13.20;99.90;;;;;;5071652;28;20480;-71
2023/05/24 11:41:48;;;;;;;18.63;6.05;;;13.10;99.90;;;;;;5070082;28;20038;-72
2023/05/24 11:44:20;;;;;;;15.75;6.05;;;13.10;99.90;;;;;;5070907;28;20024;-71
2023/05/24 11:46:46;;;;;;;21.40;6.82;;;13.10;99.90;;;;;;5071575;28;20017;-71
2023/05/24 11:49:16;;;;;;;19.10;6.10;;;13.30;99.90;;;;;;5072116;28;20040;-71
2023/05/24 11:51:42;;;;;;;24.17;6.78;;;13.40;99.90;;;;;;5071315;28;20048;-71
2023/05/24 11:54:08;;;;;;;18.75;5.25;;;13.40;99.90;;;;;;5072137;28;20032;-71
2023/05/24 11:56:34;;;;;;;16.00;5.55;;;13.50;99.90;;;;;;5071210;28;20027;-72
2023/05/24 11:59:16;;;;;;;17.98;5.60;;;13.60;99.90;;;;;;5072095;28;20028;-71
2023/05/24 12:01:42;;;;;;;15.68;5.78;;;13.60;99.90;;;;;;5071057;28;20039;-71
2023/05/24 12:04:08;;;;;;;16.10;6.43;;;13.60;99.90;;;;;;5072059;28;20074;-71
2023/05/24 12:06:42;;;;;;;17.67;5.70;;;13.70;99.90;;;;;;5070802;28;20392;-71
2023/05/24 12:09:09;;;;;;;15.80;5.63;;;13.70;99.90;;;;;;5071848;28;20059;-71
2023/05/24 12:11:43;;;;;;;16.98;5.88;;;13.80;99.90;;;;;;5070878;28;20043;-71
2023/05/24 12:14:22;;;;;;;19.98;6.60;;;13.90;99.90;;;;;;5071844;28;20060;-71
2023/05/24 12:16:48;;;;;;;15.45;6.40;;;13.90;99.90;;;;;;5070926;28;20135;-72
2023/05/24 12:19:21;;;;;;;16.13;5.80;;;13.90;99.90;;;;;;5071714;28;20025;-71
2023/05/24 12:21:48;;;;;;;19.13;5.88;;;14.00;99.90;;;;;;5070908;28;20380;-72
2023/05/24 12:24:15;;;;;;;14.75;5.63;;;14.00;99.90;;;;;;5071547;28;20028;-71
2023/05/24 12:26:47;;;;;;;17.58;5.30;;;14.10;99.90;;;;;;5070695;28;20055;-71
2023/05/24 12:29:14;;;;;;;13.60;5.10;;;14.20;99.90;;;;;;5071390;28;20116;-71
2023/05/24 12:31:41;;;;;;;13.10;5.95;;;14.30;99.90;;;;;;5070669;28;20044;-72
2023/05/24 12:34:19;;;;;;;22.45;5.80;;;14.30;99.90;;;;;;5071467;28;20112;-72
2023/05/24 12:36:46;;;;;;;19.48;6.25;;;14.60;99.90;;;;;;5069321;28;20066;-71
2023/05/24 12:39:34;;;;;;;17.23;6.05;;;14.50;99.90;;;;;;5071388;28;20461;-71